Boras — TCGU — position and weather

sailwx.info

Track history (hours):
 
Tides and Currents Weather Stations Pressure Air Temp Water Temp Dewpoint Dewpoint Depression Visibility Wind Speed Wind Dir Waves Ship Positions

Boras

Last reported at 2014-Dec-02 08:32 UTC. Time now 2014-Dec-20 20:10 UTC.
Position N 40°57' E 028°55'.
Warning: this ship's position is 18 days out of date.

Length 103 m; draft 7.4 m.

Type: Cargo ship. MMSI: 271000352.

Date/timePositionNaut miles runAvg speedWind from/ knotsBaromVisibWave heightAir tempDewpointWater temp
2014-Dec-02 08:32N 40°57' E 028°55'1 0.7
2014-Dec-02 06:32N 40°56' E 028°57'7 6.6
2014-Dec-02 05:33N 40°52' E 029°02'7 6.5
2014-Dec-02 04:33N 40°47' E 029°08'7 7.2
2014-Dec-02 03:32N 40°45' E 029°18'8 8.4
2014-Dec-02 02:32N 40°45' E 029°29'0 0.0
2014-Nov-30 07:19N 40°45' E 029°29'8 9.6
2014-Nov-30 06:30N 40°44' E 029°19'9 9.4
2014-Nov-30 05:33N 40°43' E 029°07'1010.0
2014-Nov-30 04:33N 40°42' E 028°54'9 9.3
2014-Nov-30 03:33N 40°40' E 028°42'  
Track history (hours):
 
Tides and Currents Weather Stations Pressure Air Temp Water Temp Dewpoint Dewpoint Depression Visibility Wind Speed Wind Dir Waves Ship Positions

Boras

Last reported at 2014-Dec-02 08:32 UTC. Time now 2014-Dec-20 20:10 UTC.
Position N 40°57' E 028°55'.
Warning: this ship's position is 18 days out of date.

Length 103 m; draft 7.4 m.

Type: Cargo ship. MMSI: 271000352.

Date/timePositionNaut miles runAvg speedWind from/ knotsBaromVisibWave heightAir tempDewpointWater temp
2014-Dec-02 08:32N 40°57' E 028°55'1 0.7
2014-Dec-02 06:32N 40°56' E 028°57'7 6.6
2014-Dec-02 05:33N 40°52' E 029°02'7 6.5
2014-Dec-02 04:33N 40°47' E 029°08'7 7.2
2014-Dec-02 03:32N 40°45' E 029°18'8 8.4
2014-Dec-02 02:32N 40°45' E 029°29'0 0.0
2014-Nov-30 07:19N 40°45' E 029°29'8 9.6
2014-Nov-30 06:30N 40°44' E 029°19'9 9.4
2014-Nov-30 05:33N 40°43' E 029°07'1010.0
2014-Nov-30 04:33N 40°42' E 028°54'9 9.3
2014-Nov-30 03:33N 40°40' E 028°42'  

Dump ship's entire track history